Time;durP1;ratioP1;P1;durP2;ratioP2;P2;SDS_P1;SDS_P2;PMS_P1;PMS_P2;Temp;Humidity;BMP_temperature;BMP_pressure;BME280_temperature;BME280_humidity;BME280_pressure;Samples;Min_cycle;Max_cycle;Signal;HPM_P1;HPM_P2
2023/11/02 00:02:20;;;;;;;0.10;0.10;;;;;;;8.84;100.00;95731.50;7393585;19;20374;-55
2023/11/02 00:04:47;;;;;;;0.10;0.10;;;;;;;8.81;100.00;95713.22;7388984;19;20011;-55
2023/11/02 00:07:14;;;;;;;0.10;0.10;;;;;;;8.77;100.00;95704.53;7389087;19;20031;-55
2023/11/02 00:09:40;;;;;;;2.85;0.55;;;;;;;8.79;100.00;95690.13;7391414;19;20456;-55
2023/11/02 00:12:19;;;;;;;0.30;0.13;;;;;;;8.84;100.00;95669.72;7393436;19;20022;-55
2023/11/02 00:14:47;;;;;;;0.10;0.10;;;;;;;8.92;100.00;95665.59;7401255;19;20011;-55
2023/11/02 00:17:29;;;;;;;0.10;0.10;;;;;;;8.88;100.00;95640.28;7398373;19;20018;-55
2023/11/02 00:19:55;;;;;;;0.38;0.30;;;;;;;8.93;100.00;95622.69;7398841;19;20027;-55
2023/11/02 00:22:21;;;;;;;0.10;0.10;;;;;;;8.91;100.00;95605.13;7401508;19;20027;-55
2023/11/02 00:24:51;;;;;;;3.30;0.55;;;;;;;8.93;100.00;95599.75;7400704;19;20015;-55
2023/11/02 00:27:18;;;;;;;0.10;0.10;;;;;;;9.82;100.00;95575.16;7400740;19;20038;-54
2023/11/02 00:29:44;;;;;;;0.28;0.28;;;;;;;9.14;100.00;95564.03;7396975;19;20417;-55
2023/11/02 00:32:10;;;;;;;0.10;0.10;;;;;;;9.12;100.00;95539.63;7396285;19;20470;-55
2023/11/02 00:34:39;;;;;;;1.48;0.63;;;;;;;9.01;100.00;95531.06;7400200;19;20018;-55
2023/11/02 00:37:06;;;;;;;0.10;0.10;;;;;;;9.02;100.00;95524.22;7396984;19;20010;-55
2023/11/02 00:39:32;;;;;;;0.20;0.20;;;;;;;9.03;100.00;95509.75;7396062;19;20082;-55
2023/11/02 00:41:59;;;;;;;0.10;0.10;;;;;;;9.01;100.00;95484.63;7395747;19;20018;-55
2023/11/02 00:44:26;;;;;;;0.10;0.10;;;;;;;9.04;100.00;95472.41;7399578;19;20011;-54
2023/11/02 00:46:52;;;;;;;0.10;0.00;;;;;;;9.06;100.00;95457.94;7393010;19;20017;-55
2023/11/02 00:49:21;;;;;;;0.10;0.10;;;;;;;9.07;100.00;95437.22;7395599;19;20015;-55
2023/11/02 00:51:59;;;;;;;0.10;0.10;;;;;;;9.12;100.00;95423.09;7395946;19;20018;-55
2023/11/02 00:54:49;;;;;;;0.30;0.30;;;;;;;9.19;100.00;95402.09;7398107;19;20017;-55
2023/11/02 00:57:20;;;;;;;0.10;0.10;;;;;;;9.18;100.00;95380.47;7400213;19;20459;-54
2023/11/02 00:59:47;;;;;;;0.10;0.10;;;;;;;9.47;100.00;95378.59;7397091;19;20011;-55
2023/11/02 01:02:14;;;;;;;0.20;0.20;;;;;;;9.31;100.00;95366.25;7398096;19;20019;-55
2023/11/02 01:04:43;;;;;;;0.35;0.20;;;;;;;9.14;100.00;95348.31;7397541;19;20356;-55
2023/11/02 01:07:10;;;;;;;0.10;0.10;;;;;;;9.16;100.00;95336.63;7395917;19;20018;-55
2023/11/02 01:10:04;;;;;;;0.15;0.15;;;;;;;9.14;100.00;95328.88;7394248;19;20558;-55
2023/11/02 01:12:32;;;;;;;0.32;0.28;;;;;;;9.15;100.00;95310.94;7396109;19;20443;-55
2023/11/02 01:14:58;;;;;;;0.30;0.30;;;;;;;9.26;100.00;95289.50;7398393;19;20010;-55
2023/11/02 01:17:31;;;;;;;0.45;0.20;;;;;;;9.40;100.00;95273.97;7394705;19;20106;-55
2023/11/02 01:20:05;;;;;;;0.10;0.10;;;;;;;9.36;100.00;95252.16;7394279;19;20015;-55
2023/11/02 01:22:32;;;;;;;0.10;0.10;;;;;;;9.30;100.00;95239.84;7398747;19;20024;-55
2023/11/02 01:25:05;;;;;;;0.15;0.10;;;;;;;9.12;100.00;95239.19;7396324;19;20014;-54
2023/11/02 01:27:31;;;;;;;0.10;0.10;;;;;;;9.12;100.00;95234.38;7397159;19;20021;-55
2023/11/02 01:29:58;;;;;;;3.50;0.30;;;;;;;9.67;100.00;95230.91;7396580;19;20010;-54
2023/11/02 01:32:26;;;;;;;0.10;0.00;;;;;;;9.27;100.00;95227.16;7395618;19;20028;-55
2023/11/02 01:34:52;;;;;;;0.10;0.10;;;;;;;10.26;100.00;95216.53;7393723;19;20042;-55
2023/11/02 01:37:19;;;;;;;0.10;0.00;;;;;;;9.60;100.00;95208.81;7399262;19;20454;-55
2023/11/02 01:39:45;;;;;;;0.10;0.10;;;;;;;9.39;100.00;95195.47;7393774;19;20738;-55
2023/11/02 01:42:17;;;;;;;0.10;0.10;;;;;;;9.49;100.00;95201.78;7394344;19;20025;-55
2023/11/02 01:44:53;;;;;;;0.10;0.10;;;;;;;9.64;100.00;95198.75;7394201;19;20039;-55
2023/11/02 01:47:29;;;;;;;0.10;0.10;;;;;;;9.44;100.00;95190.97;7395429;19;20459;-55
2023/11/02 01:50:14;;;;;;;0.10;0.10;;;;;;;9.41;100.00;95169.91;7393535;19;20021;-55
2023/11/02 01:52:52;;;;;;;0.10;0.10;;;;;;;9.26;100.00;95161.84;7393410;19;20019;-55
2023/11/02 01:55:18;;;;;;;0.10;0.10;;;;;;;9.48;100.00;95158.69;7393594;19;20018;-55
2023/11/02 01:58:03;;;;;;;0.10;0.10;;;;;;;9.85;100.00;95137.78;7397991;19;20022;-55
2023/11/02 02:00:57;;;;;;;0.32;0.30;;;;;;;9.50;100.00;95127.56;7395535;19;20011;-55
2023/11/02 02:03:52;;;;;;;0.10;0.10;;;;;;;9.64;100.00;95115.44;7392831;19;20340;-55
2023/11/02 02:06:29;;;;;;;0.10;0.10;;;;;;;10.20;100.00;95096.53;7393570;19;20040;-55
2023/11/02 02:09:08;;;;;;;0.10;0.10;;;;;;;10.01;100.00;95076.34;7394761;19;20018;-55
2023/11/02 02:11:44;;;;;;;0.13;0.13;;;;;;;9.41;100.00;95081.81;7392690;19;20010;-55
2023/11/02 02:14:37;;;;;;;0.10;0.10;;;;;;;9.39;100.00;95055.94;7393325;19;20010;-55
2023/11/02 02:17:14;;;;;;;0.10;0.00;;;;;;;9.47;100.00;95060.03;7394604;19;20010;-55
2023/11/02 02:20:03;;;;;;;0.10;0.10;;;;;;;9.43;100.00;95047.91;7392321;19;20397;-55
2023/11/02 02:23:05;;;;;;;0.10;0.10;;;;;;;9.35;100.00;95036.22;7397193;19;20014;-55
2023/11/02 02:25:56;;;;;;;0.10;0.10;;;;;;;9.32;100.00;95029.78;7394686;19;20459;-55
2023/11/02 02:29:07;;;;;;;0.10;0.10;;;;;;;9.28;100.00;95021.16;7393794;19;20324;-55
2023/11/02 02:32:01;;;;;;;0.10;0.10;;;;;;;9.56;100.00;95009.31;7391614;19;20078;-55
2023/11/02 02:34:36;;;;;;;0.10;0.10;;;;;;;9.36;100.00;94996.75;7389943;19;20018;-56
2023/11/02 02:37:06;;;;;;;0.10;0.10;;;;;;;9.34;100.00;94998.66;7394635;19;20484;-55
2023/11/02 02:39:41;;;;;;;0.53;0.10;;;;;;;9.53;100.00;94970.91;7392609;19;20010;-55
2023/11/02 02:42:09;;;;;;;0.10;0.00;;;;;;;9.47;100.00;94970.47;7391468;19;20018;-55
2023/11/02 02:44:37;;;;;;;0.10;0.10;;;;;;;9.63;100.00;94947.34;7392002;19;20010;-55
2023/11/02 02:47:05;;;;;;;0.10;0.10;;;;;;;10.03;100.00;94941.06;7390468;19;20010;-55
2023/11/02 02:49:39;;;;;;;0.10;0.10;;;;;;;10.14;100.00;94943.25;7397048;19;20015;-55
2023/11/02 02:52:09;;;;;;;0.10;0.10;;;;;;;9.91;100.00;94940.25;7393931;19;20007;-55
2023/11/02 02:54:40;;;;;;;0.10;0.00;;;;;;;9.88;100.00;94925.50;7393462;19;20036;-55
2023/11/02 02:57:09;;;;;;;0.10;0.05;;;;;;;9.68;100.00;94915.03;7394282;19;20017;-55
2023/11/02 02:59:42;;;;;;;0.10;0.10;;;;;;;9.66;100.00;94912.09;7392108;19;20049;-80
2023/11/02 03:02:13;;;;;;;0.10;0.05;;;;;;;9.68;100.00;94909.50;7388301;19;20015;-80
2023/11/02 03:04:43;;;;;;;0.10;0.10;;;;;;;9.65;100.00;94900.28;7388179;19;20006;-80
2023/11/02 03:07:10;;;;;;;0.10;0.00;;;;;;;9.61;100.00;94896.50;7389326;19;20018;-80
2023/11/02 03:09:38;;;;;;;0.10;0.00;;;;;;;9.56;100.00;94886.41;7389465;19;20074;-80
2023/11/02 03:12:06;;;;;;;0.30;0.20;;;;;;;9.70;100.00;94873.53;7388235;19;20019;-79
2023/11/02 03:14:38;;;;;;;0.10;0.05;;;;;;;9.76;100.00;94887.81;7366320;19;20458;-80
2023/11/02 03:17:14;;;;;;;0.10;0.10;;;;;;;9.62;100.00;94875.72;7387586;19;20103;-80
2023/11/02 03:19:46;;;;;;;0.10;0.10;;;;;;;9.63;100.00;94863.31;7387605;19;20018;-79
2023/11/02 03:22:17;;;;;;;0.65;0.20;;;;;;;10.74;100.00;94854.06;7388873;19;20014;-80
2023/11/02 03:25:03;;;;;;;0.10;0.10;;;;;;;9.75;100.00;94847.47;7387834;19;20010;-80
2023/11/02 03:27:50;;;;;;;0.10;0.10;;;;;;;10.23;100.00;94841.69;7387146;19;20006;-80
2023/11/02 03:30:45;;;;;;;0.10;0.00;;;;;;;9.86;100.00;94819.06;7389552;19;20488;-80
2023/11/02 03:33:17;;;;;;;0.10;0.00;;;;;;;9.72;100.00;94809.78;7389808;19;20006;-80
2023/11/02 03:35:57;;;;;;;0.10;0.10;;;;;;;9.69;100.00;94805.41;7386416;19;20011;-80
2023/11/02 03:38:52;;;;;;;0.10;0.00;;;;;;;9.81;100.00;94795.81;7385610;19;20015;-80
2023/11/02 03:42:09;;;;;;;0.10;0.10;;;;;;;9.75;100.00;94791.91;7387579;19;20011;-80
2023/11/02 03:44:41;;;;;;;0.10;0.00;;;;;;;9.79;100.00;94784.59;7385534;19;20014;-80
2023/11/02 03:47:35;;;;;;;0.10;0.10;;;;;;;9.81;100.00;94778.44;7390915;19;20003;-80
2023/11/02 03:50:18;;;;;;;0.10;0.10;;;;;;;10.06;100.00;94769.66;7394427;19;20399;-80
2023/11/02 03:52:56;;;;;;;0.10;0.00;;;;;;;11.65;100.00;94749.06;7393829;19;20015;-79
2023/11/02 03:55:41;;;;;;;0.10;0.10;;;;;;;10.23;100.00;94739.56;7393038;19;20010;-79
2023/11/02 03:58:22;;;;;;;0.30;0.10;;;;;;;10.13;100.00;94733.38;7393563;19;20007;-80
2023/11/02 04:01:11;;;;;;;0.10;0.10;;;;;;;9.98;100.00;94735.78;7394418;19;20043;-79
2023/11/02 04:03:43;;;;;;;0.10;0.03;;;;;;;10.07;100.00;94730.16;7393704;19;20030;-80
2023/11/02 04:06:11;;;;;;;;;;;;;;;9.98;100.00;94736.53;7396658;19;20420;-80
2023/11/02 04:08:42;;;;;;;0.10;0.00;;;;;;;10.00;100.00;94733.88;7392794;19;19938;-80
2023/11/02 04:11:29;;;;;;;0.10;0.00;;;;;;;10.01;100.00;94732.53;7396603;19;20070;-80
2023/11/02 04:14:12;;;;;;;0.10;0.10;;;;;;;10.24;100.00;94716.03;7393159;19;20074;-80
2023/11/02 04:16:39;;;;;;;0.10;0.10;;;;;;;10.55;100.00;94727.00;7395059;19;19999;-81
2023/11/02 04:19:05;;;;;;;0.25;0.10;;;;;;;10.07;100.00;94721.81;7393137;19;20014;-80
2023/11/02 04:21:31;;;;;;;0.20;0.20;;;;;;;10.02;100.00;94711.78;7391046;19;20398;-80
2023/11/02 04:23:58;;;;;;;0.10;0.10;;;;;;;10.01;100.00;94704.75;7392091;19;20019;-80
2023/11/02 04:26:24;;;;;;;0.45;0.20;;;;;;;10.08;100.00;94698.28;7394645;19;20022;-80
2023/11/02 04:28:50;;;;;;;0.10;0.10;;;;;;;10.07;100.00;94691.25;7395013;19;20010;-80
2023/11/02 04:31:16;;;;;;;0.10;0.00;;;;;;;10.07;100.00;94685.69;7392885;19;20508;-80
2023/11/02 04:33:43;;;;;;;0.93;0.45;;;;;;;10.07;100.00;94671.78;7394573;19;20025;-80
2023/11/02 04:36:09;;;;;;;0.10;0.00;;;;;;;10.25;100.00;94675.03;7395517;19;20006;-80
2023/11/02 04:38:35;;;;;;;0.10;0.10;;;;;;;10.24;100.00;94657.66;7390822;19;20015;-80
2023/11/02 04:41:02;;;;;;;0.10;0.00;;;;;;;10.31;100.00;94651.13;7393869;19;20525;-80
2023/11/02 04:43:28;;;;;;;0.10;0.10;;;;;;;10.39;100.00;94648.13;7392485;19;20025;-80
2023/11/02 04:45:54;;;;;;;0.10;0.10;;;;;;;10.45;100.00;94632.56;7394454;19;20077;-80
2023/11/02 04:48:20;;;;;;;4.82;0.15;;;;;;;10.23;100.00;94622.84;7391755;19;20037;-80
2023/11/02 04:50:52;;;;;;;0.10;0.00;;;;;;;10.39;100.00;94612.72;7392955;19;20015;-79
2023/11/02 04:53:19;;;;;;;0.10;0.00;;;;;;;10.54;100.00;94609.50;7394139;19;20025;-79
2023/11/02 04:55:45;;;;;;;0.10;0.05;;;;;;;10.45;100.00;94599.19;7392190;19;20083;-80
2023/11/02 04:58:11;;;;;;;0.03;0.00;;;;;;;10.17;100.00;94591.88;7391647;19;20003;-80
2023/11/02 05:00:37;;;;;;;0.10;0.10;;;;;;;10.13;100.00;94580.53;7393388;19;20018;-79
2023/11/02 05:03:04;;;;;;;0.10;0.00;;;;;;;10.08;100.00;94578.78;7394615;19;20007;-79
2023/11/02 05:05:30;;;;;;;0.10;0.00;;;;;;;10.21;100.00;94581.00;7392298;19;20044;-80
2023/11/02 05:07:57;;;;;;;0.10;0.10;;;;;;;10.39;100.00;94568.25;7394087;19;20025;-79
2023/11/02 05:10:23;;;;;;;0.10;0.10;;;;;;;10.63;100.00;94561.34;7393217;19;20021;-80
2023/11/02 05:12:49;;;;;;;0.10;0.00;;;;;;;10.53;100.00;94562.81;7391743;19;20006;-79
2023/11/02 05:15:15;;;;;;;0.10;0.00;;;;;;;11.41;100.00;94548.56;7394213;19;20017;-79
2023/11/02 05:17:42;;;;;;;0.17;0.17;;;;;;;10.90;100.00;94544.19;7392560;19;20018;-80
2023/11/02 05:20:09;;;;;;;0.15;0.15;;;;;;;10.68;100.00;94556.75;7392691;19;20021;-80
2023/11/02 05:22:35;;;;;;;0.10;0.10;;;;;;;10.46;100.00;94549.88;7392144;19;20007;-80
2023/11/02 05:25:01;;;;;;;0.10;0.10;;;;;;;10.64;100.00;94540.56;7391610;19;20503;-80
2023/11/02 05:27:29;;;;;;;0.10;0.10;;;;;;;10.75;100.00;94530.03;7390682;19;20022;-80
2023/11/02 05:29:55;;;;;;;0.10;0.00;;;;;;;10.72;100.00;94531.25;7392188;19;20759;-80
2023/11/02 05:32:21;;;;;;;0.30;0.13;;;;;;;10.76;100.00;94534.28;7390456;19;20024;-80
2023/11/02 05:34:47;;;;;;;0.10;0.00;;;;;;;11.11;100.00;94523.84;7393074;19;20040;-80
2023/11/02 05:37:13;;;;;;;0.10;0.10;;;;;;;10.86;100.00;94529.31;7392411;19;20019;-80
2023/11/02 05:39:39;;;;;;;0.35;0.20;;;;;;;10.78;100.00;94517.72;7391671;19;20014;-80
2023/11/02 05:42:06;;;;;;;0.10;0.00;;;;;;;10.89;100.00;94523.25;7392027;19;20041;-79
2023/11/02 05:44:32;;;;;;;7.35;0.28;;;;;;;11.16;100.00;94512.31;7390238;19;20021;-79
2023/11/02 05:46:58;;;;;;;0.10;0.00;;;;;;;10.94;100.00;94515.84;7391437;19;20011;-80
2023/11/02 05:49:25;;;;;;;0.10;0.10;;;;;;;10.94;100.00;94521.41;7389445;19;20015;-79
2023/11/02 05:51:51;;;;;;;0.10;0.10;;;;;;;10.89;100.00;94516.97;7392703;19;20010;-79
2023/11/02 05:54:17;;;;;;;0.20;0.10;;;;;;;10.98;100.00;94524.47;7389302;19;20003;-80
2023/11/02 05:56:44;;;;;;;0.70;0.22;;;;;;;11.02;100.00;94525.41;7392561;19;20006;-80
2023/11/02 05:59:10;;;;;;;0.10;0.00;;;;;;;11.36;100.00;94526.66;7390564;19;20541;-80
2023/11/02 06:01:37;;;;;;;0.93;0.30;;;;;;;11.12;100.00;94516.91;7390242;19;20015;-81
2023/11/02 06:04:04;;;;;;;0.10;0.10;;;;;;;11.35;100.00;94514.78;7390945;19;20014;-80
2023/11/02 06:06:30;;;;;;;0.20;0.20;;;;;;;11.42;100.00;94519.38;7389565;19;20018;-81
2023/11/02 06:08:56;;;;;;;0.10;0.10;;;;;;;11.22;100.00;94520.28;7390596;19;20074;-79
2023/11/02 06:11:22;;;;;;;0.10;0.00;;;;;;;11.24;100.00;94512.06;7387901;19;20006;-80
2023/11/02 06:13:48;;;;;;;0.20;0.20;;;;;;;11.32;100.00;94516.03;7389464;19;20577;-81
2023/11/02 06:16:15;;;;;;;0.20;0.20;;;;;;;11.40;100.00;94516.47;7391671;19;20041;-80
2023/11/02 06:18:42;;;;;;;0.13;0.13;;;;;;;11.44;100.00;94513.94;7389165;19;20074;-80
2023/11/02 06:21:09;;;;;;;0.10;0.10;;;;;;;11.49;100.00;94520.44;7391565;19;20002;-80
2023/11/02 06:23:35;;;;;;;1.50;0.50;;;;;;;11.71;100.00;94509.84;7391654;19;20023;-80
2023/11/02 06:26:01;;;;;;;0.10;0.10;;;;;;;11.89;100.00;94511.56;7391107;19;20381;-80
2023/11/02 06:28:28;;;;;;;0.10;0.00;;;;;;;11.57;100.00;94509.75;7390008;19;20023;-80
2023/11/02 06:30:54;;;;;;;0.10;0.10;;;;;;;11.58;100.00;94508.44;7391844;19;20017;-80
2023/11/02 06:33:27;;;;;;;0.10;0.10;;;;;;;11.79;100.00;94511.03;7390031;19;20014;-80
2023/11/02 06:35:54;;;;;;;2.45;1.08;;;;;;;11.71;100.00;94505.00;7390426;19;20007;-81
2023/11/02 06:38:21;;;;;;;0.70;0.70;;;;;;;11.80;100.00;94503.41;7390028;19;20465;-80
2023/11/02 06:40:48;;;;;;;0.15;0.13;;;;;;;11.50;100.00;94505.16;7391762;19;20011;-80
2023/11/02 06:43:14;;;;;;;0.10;0.10;;;;;;;11.52;100.00;94508.06;7389154;19;20023;-80
2023/11/02 06:45:40;;;;;;;0.10;0.00;;;;;;;11.34;100.00;94504.28;7389208;19;20017;-80
2023/11/02 06:48:06;;;;;;;0.10;0.03;;;;;;;11.46;100.00;94504.94;7388646;19;20043;-80
2023/11/02 06:50:33;;;;;;;0.50;0.50;;;;;;;11.63;100.00;94510.09;7389340;19;20018;-80
2023/11/02 06:52:59;;;;;;;0.10;0.10;;;;;;;11.48;100.00;94502.28;7388808;19;20014;-80
2023/11/02 06:55:25;;;;;;;0.10;0.10;;;;;;;11.29;100.00;94508.16;7387602;19;20018;-81
2023/11/02 06:57:51;;;;;;;0.90;0.20;;;;;;;11.36;100.00;94501.59;7389539;19;20039;-80
2023/11/02 07:00:18;;;;;;;0.20;0.20;;;;;;;11.32;100.00;94501.38;7389527;19;20019;-57
2023/11/02 07:02:44;;;;;;;1.10;0.70;;;;;;;11.31;100.00;94506.22;7390878;19;20458;-58
2023/11/02 07:05:10;;;;;;;0.38;0.38;;;;;;;11.06;100.00;94502.66;7390857;19;20010;-58
2023/11/02 07:07:40;;;;;;;1.75;0.93;;;;;;;11.04;100.00;94499.75;7391813;19;20003;-57
2023/11/02 07:10:09;;;;;;;0.30;0.30;;;;;;;11.04;100.00;94499.75;7395732;19;20022;-58
2023/11/02 07:12:36;;;;;;;0.38;0.30;;;;;;;11.00;100.00;94510.66;7392507;19;20017;-57
2023/11/02 07:15:03;;;;;;;0.10;0.10;;;;;;;11.09;100.00;94501.44;7392290;19;20010;-57
2023/11/02 07:17:29;;;;;;;0.10;0.05;;;;;;;11.19;100.00;94504.81;7391064;19;20015;-59
2023/11/02 07:19:55;;;;;;;0.63;0.10;;;;;;;11.28;100.00;94506.72;7395345;19;20006;-57
2023/11/02 07:22:22;;;;;;;0.32;0.30;;;;;;;11.33;100.00;94503.53;7396795;19;20006;-58
2023/11/02 07:24:48;;;;;;;0.10;0.00;;;;;;;11.21;100.00;94502.13;7392397;19;20021;-57
2023/11/02 07:27:15;;;;;;;0.10;0.00;;;;;;;11.16;100.00;94506.75;7392467;19;20011;-58
2023/11/02 07:29:41;;;;;;;0.25;0.10;;;;;;;11.25;100.00;94500.31;7395983;19;20356;-58
2023/11/02 07:32:10;;;;;;;0.32;0.30;;;;;;;11.00;100.00;94502.31;7392651;19;20474;-57
2023/11/02 07:34:36;;;;;;;0.00;0.00;;;;;;;10.98;100.00;94511.25;7391690;19;20010;-58
2023/11/02 07:37:02;;;;;;;0.10;0.05;;;;;;;11.07;100.00;94509.66;7391172;19;20513;-57
2023/11/02 07:39:29;;;;;;;0.10;0.10;;;;;;;11.52;100.00;94508.06;7393103;19;20007;-57
2023/11/02 07:41:55;;;;;;;0.30;0.30;;;;;;;11.51;100.00;94508.69;7392790;19;20046;-57
2023/11/02 07:44:21;;;;;;;0.22;0.20;;;;;;;12.00;100.00;94521.94;7393027;19;20023;-57
2023/11/02 07:46:47;;;;;;;0.10;0.10;;;;;;;11.55;100.00;94506.84;7390782;19;20555;-57
2023/11/02 07:49:13;;;;;;;0.75;0.35;;;;;;;11.87;100.00;94510.72;7394758;19;20479;-57
2023/11/02 07:51:39;;;;;;;0.10;0.10;;;;;;;11.37;100.00;94514.91;7391384;19;20046;-57
2023/11/02 07:54:07;;;;;;;1.30;0.38;;;;;;;11.35;100.00;94514.06;7393402;19;20561;-57
2023/11/02 07:56:33;;;;;;;0.20;0.20;;;;;;;11.30;100.00;94520.75;7394224;19;20015;-57
2023/11/02 08:01:42;;;;;;;0.10;0.10;;;;;;;11.90;100.00;94515.09;7386110;19;20558;-58
2023/11/02 08:04:09;;;;;;;0.35;0.30;;;;;;;12.66;100.00;94501.72;7388921;19;20014;-58
2023/11/02 08:06:35;;;;;;;0.57;0.15;;;;;;;11.93;100.00;94514.56;7389236;19;20018;-56
2023/11/02 08:09:01;;;;;;;0.10;0.10;;;;;;;11.46;100.00;94509.81;7393889;19;20501;-57
2023/11/02 08:11:27;;;;;;;0.10;0.10;;;;;;;12.45;100.00;94510.38;7391999;19;20006;-57
2023/11/02 08:13:53;;;;;;;0.17;0.17;;;;;;;12.29;100.00;94513.03;7391432;19;20017;-56
2023/11/02 08:16:20;;;;;;;0.10;0.10;;;;;;;11.88;100.00;94509.41;7391523;19;20018;-57
2023/11/02 08:18:47;;;;;;;0.10;0.00;;;;;;;12.89;100.00;94499.44;7391603;19;20003;-56
2023/11/02 08:21:13;;;;;;;0.10;0.00;;;;;;;13.64;100.00;94506.69;7393151;19;20360;-57
2023/11/02 08:23:39;;;;;;;1.00;0.20;;;;;;;13.75;100.00;94509.97;7391190;19;20010;-57
2023/11/02 08:26:06;;;;;;;0.10;0.00;;;;;;;13.91;100.00;94510.72;7389464;19;20016;-57
2023/11/02 08:28:32;;;;;;;0.15;0.15;;;;;;;13.93;100.00;94513.63;7389199;19;20026;-57
2023/11/02 08:30:58;;;;;;;0.30;0.30;;;;;;;14.01;100.00;94516.81;7391112;19;20066;-57
2023/11/02 08:33:24;;;;;;;0.10;0.00;;;;;;;13.72;100.00;94516.81;7393047;19;20014;-57
2023/11/02 08:35:51;;;;;;;0.30;0.10;;;;;;;13.87;100.00;94516.13;7396926;19;20039;-57
2023/11/02 08:38:17;;;;;;;0.28;0.28;;;;;;;13.74;100.00;94520.44;7396866;19;20006;-57
2023/11/02 08:40:43;;;;;;;0.38;0.20;;;;;;;12.97;100.00;94521.47;7397029;19;20098;-57
2023/11/02 08:43:09;;;;;;;1.00;0.47;;;;;;;13.19;100.00;94508.66;7396894;19;20007;-57
2023/11/02 08:45:35;;;;;;;0.10;0.00;;;;;;;13.02;100.00;94520.31;7396200;19;20401;-57
2023/11/02 08:48:01;;;;;;;0.22;0.10;;;;;;;13.50;100.00;94514.38;7395081;19;20448;-57
2023/11/02 08:50:27;;;;;;;7.03;0.35;;;;;;;12.50;100.00;94520.38;7399955;19;20014;-57
2023/11/02 08:52:54;;;;;;;0.20;0.20;;;;;;;12.32;100.00;94531.34;7396082;19;20007;-57
2023/11/02 08:55:20;;;;;;;0.95;0.63;;;;;;;12.65;100.00;94522.59;7397202;19;20815;-57
2023/11/02 08:57:46;;;;;;;4.72;0.65;;;;;;;12.57;100.00;94527.75;7401320;19;20355;-57
2023/11/02 09:00:14;;;;;;;1.42;0.77;;;;;;;12.44;100.00;94531.25;7401581;19;20006;-57
2023/11/02 09:02:40;;;;;;;0.20;0.20;;;;;;;12.08;100.00;94538.38;7396229;19;20018;-58
2023/11/02 09:05:07;;;;;;;0.70;0.38;;;;;;;13.35;100.00;94531.81;7396451;19;20010;-57
2023/11/02 09:07:33;;;;;;;0.40;0.30;;;;;;;14.22;100.00;94527.59;7397270;19;20023;-57
2023/11/02 09:09:59;;;;;;;1.70;0.65;;;;;;;14.20;100.00;94524.69;7401656;19;20040;-57
2023/11/02 09:12:25;;;;;;;0.52;0.52;;;;;;;21.85;100.00;94527.06;7397522;19;20036;-57
2023/11/02 09:14:51;;;;;;;0.75;0.47;;;;;;;32.58;59.46;94511.97;7397156;19;20021;-57
2023/11/02 09:17:18;;;;;;;17.42;0.60;;;;;;;34.30;49.40;94506.53;7395528;19;20028;-57
2023/11/02 09:19:44;;;;;;;0.17;0.17;;;;;;;31.14;47.73;94508.53;7400699;19;20014;-57
2023/11/02 09:22:10;;;;;;;0.32;0.32;;;;;;;17.75;100.00;94546.06;7400283;19;20011;-55
2023/11/02 09:24:38;;;;;;;0.40;0.32;;;;;;;15.66;100.00;94540.97;7396587;19;20007;-55
2023/11/02 09:27:04;;;;;;;0.08;0.00;;;;;;;15.10;100.00;94540.00;7396717;19;20011;-55
2023/11/02 09:29:30;;;;;;;0.30;0.22;;;;;;;14.71;100.00;94548.06;7397943;19;20011;-55
2023/11/02 09:31:56;;;;;;;0.93;0.25;;;;;;;14.45;100.00;94549.66;7395502;19;20027;-55
2023/11/02 09:34:22;;;;;;;0.20;0.20;;;;;;;14.35;100.00;94552.00;7395474;19;20014;-55
2023/11/02 09:36:49;;;;;;;0.17;0.17;;;;;;;14.11;100.00;94553.63;7395858;19;20006;-55
2023/11/02 09:39:15;;;;;;;0.35;0.20;;;;;;;14.17;100.00;94548.31;7398021;19;20018;-55
2023/11/02 09:41:41;;;;;;;0.22;0.22;;;;;;;14.28;100.00;94553.03;7395121;19;20014;-55
2023/11/02 09:44:08;;;;;;;0.43;0.10;;;;;;;14.16;100.00;94558.09;7394958;19;20015;-55
2023/11/02 09:46:35;;;;;;;0.10;0.10;;;;;;;14.20;100.00;94552.66;7392481;19;20038;-55
2023/11/02 09:49:01;;;;;;;0.15;0.15;;;;;;;18.87;100.00;94543.28;7396233;19;20361;-55
2023/11/02 09:51:28;;;;;;;0.22;0.22;;;;;;;31.83;70.85;94536.66;7393735;19;20031;-55
2023/11/02 09:53:55;;;;;;;0.57;0.20;;;;;;;40.01;37.60;94536.28;7393375;19;20010;-55
2023/11/02 09:56:22;;;;;;;0.10;0.10;;;;;;;41.61;32.75;94530.91;7396383;19;20036;-55
2023/11/02 09:58:50;;;;;;;10.15;0.32;;;;;;;30.02;53.94;94539.69;7396218;19;20017;-55
2023/11/02 10:01:17;;;;;;;0.20;0.20;;;;;;;35.48;48.01;94547.47;7395047;19;20011;-55
2023/11/02 10:03:43;;;;;;;0.20;0.20;;;;;;;28.30;84.76;94566.47;7394822;19;20011;-55
2023/11/02 10:06:10;;;;;;;0.60;0.60;;;;;;;17.07;100.00;94582.97;7394158;19;20019;-55
2023/11/02 10:08:36;;;;;;;0.70;0.60;;;;;;;13.90;100.00;94593.19;7393840;19;20014;-55
2023/11/02 10:11:10;;;;;;;0.28;0.25;;;;;;;37.65;42.34;94557.84;7395716;19;20039;-55
2023/11/02 10:13:36;;;;;;;0.10;0.00;;;;;;;41.06;32.81;94556.03;7394744;19;20011;-55
2023/11/02 10:16:03;;;;;;;3.38;0.60;;;;;;;22.17;78.68;94587.13;7393045;19;20014;-55
2023/11/02 10:18:29;;;;;;;0.75;0.30;;;;;;;15.22;100.00;94603.53;7394983;19;20029;-55
2023/11/02 10:20:55;;;;;;;1.20;0.77;;;;;;;13.38;100.00;94608.75;7396023;19;20116;-55
2023/11/02 10:23:21;;;;;;;2.75;0.80;;;;;;;12.61;100.00;94604.00;7394656;19;20023;-55
2023/11/02 10:25:47;;;;;;;0.10;0.00;;;;;;;12.15;100.00;94602.22;7392665;19;20467;-55
2023/11/02 10:28:14;;;;;;;0.30;0.30;;;;;;;12.31;100.00;94610.75;7394852;19;20031;-55
2023/11/02 10:30:41;;;;;;;0.98;0.57;;;;;;;12.19;100.00;94618.47;7393488;19;20015;-55
2023/11/02 10:33:08;;;;;;;1.50;0.10;;;;;;;12.12;100.00;94622.25;7394923;19;20077;-55
2023/11/02 10:35:37;;;;;;;0.28;0.28;;;;;;;11.76;100.00;94617.41;7393984;19;20039;-55
2023/11/02 10:38:07;;;;;;;0.73;0.52;;;;;;;11.93;100.00;94622.56;7391963;19;20014;-55
2023/11/02 10:40:44;;;;;;;0.25;0.25;;;;;;;11.56;100.00;94632.94;7393114;19;20100;-55
2023/11/02 10:43:18;;;;;;;0.32;0.20;;;;;;;11.42;100.00;94635.59;7394299;19;20014;-55
2023/11/02 10:45:50;;;;;;;0.10;0.10;;;;;;;11.55;100.00;94639.81;7391569;19;20014;-55
2023/11/02 10:48:17;;;;;;;0.57;0.20;;;;;;;11.57;100.00;94643.47;7394127;19;20015;-55
2023/11/02 10:50:47;;;;;;;0.20;0.20;;;;;;;11.76;100.00;94645.28;7393847;19;20337;-55
2023/11/02 10:53:23;;;;;;;0.23;0.23;;;;;;;11.79;100.00;94647.56;7393502;19;20447;-55
2023/11/02 10:55:56;;;;;;;0.20;0.20;;;;;;;11.85;100.00;94653.47;7392653;19;20268;-55
2023/11/02 10:58:23;;;;;;;0.20;0.20;;;;;;;11.66;100.00;94653.75;7392682;19;20031;-55
2023/11/02 11:00:52;;;;;;;0.82;0.57;;;;;;;11.76;100.00;94653.63;7392069;19;20014;-55
2023/11/02 11:03:20;;;;;;;0.10;0.10;;;;;;;11.75;100.00;94658.47;7390904;19;20031;-55
2023/11/02 11:05:48;;;;;;;0.38;0.38;;;;;;;11.86;100.00;94654.19;7392123;19;20492;-55
2023/11/02 11:08:15;;;;;;;0.10;0.05;;;;;;;11.78;100.00;94660.03;7393667;19;20025;-55
2023/11/02 11:10:43;;;;;;;2.88;1.63;;;;;;;12.17;100.00;94663.66;7391311;19;20471;-55
2023/11/02 11:13:10;;;;;;;0.28;0.15;;;;;;;12.54;100.00;94665.69;7392645;19;20094;-55
2023/11/02 11:15:36;;;;;;;0.30;0.30;;;;;;;11.96;100.00;94669.44;7391705;19;20014;-54
2023/11/02 11:18:06;;;;;;;0.20;0.20;;;;;;;12.18;100.00;94673.50;7391088;19;20512;-55
2023/11/02 11:20:32;;;;;;;0.10;0.10;;;;;;;12.18;100.00;94676.28;7393006;19;20023;-55
2023/11/02 11:22:59;;;;;;;0.13;0.10;;;;;;;12.05;100.00;94679.72;7392509;19;20025;-55
2023/11/02 11:25:26;;;;;;;0.50;0.40;;;;;;;11.72;100.00;94687.53;7392305;19;20375;-54
2023/11/02 11:27:52;;;;;;;0.73;0.30;;;;;;;11.63;100.00;94679.31;7397646;19;20460;-54
2023/11/02 11:30:21;;;;;;;0.17;0.17;;;;;;;12.85;100.00;94671.56;7395840;19;20010;-55
2023/11/02 11:32:49;;;;;;;0.10;0.10;;;;;;;13.21;100.00;94667.22;7391469;19;20062;-54
2023/11/02 11:35:17;;;;;;;0.28;0.25;;;;;;;13.36;100.00;94667.31;7392958;19;20022;-55
2023/11/02 11:37:50;;;;;;;1.90;1.25;;;;;;;13.43;100.00;94665.56;7390098;19;20019;-55
2023/11/02 11:40:19;;;;;;;0.35;0.30;;;;;;;13.29;100.00;94673.97;7396506;19;20007;-54
2023/11/02 11:43:13;;;;;;;0.10;0.00;;;;;;;13.72;100.00;94673.34;7392051;19;20050;-55
2023/11/02 11:45:42;;;;;;;4.20;0.45;;;;;;;13.89;100.00;94681.19;7391307;19;20425;-55